sensor_id;sensor_type;location;lat;lon;timestamp;P1;durP1;ratioP1;P2;durP2;ratioP2
76795;SDS011;65745;50.278;18.192;2023-04-24T00:02:03;24.30;;;18.90;;
76795;SDS011;65745;50.278;18.192;2023-04-24T00:04:40;23.50;;;18.90;;
76795;SDS011;65745;50.278;18.192;2023-04-24T00:07:14;21.40;;;17.40;;
76795;SDS011;65745;50.278;18.192;2023-04-24T00:09:46;23.70;;;19.50;;
76795;SDS011;65745;50.278;18.192;2023-04-24T00:12:18;24.50;;;18.70;;
76795;SDS011;65745;50.278;18.192;2023-04-24T00:14:50;21.30;;;18.50;;
76795;SDS011;65745;50.278;18.192;2023-04-24T00:17:22;22.30;;;18.80;;
76795;SDS011;65745;50.278;18.192;2023-04-24T00:19:54;28.50;;;20.00;;
76795;SDS011;65745;50.278;18.192;2023-04-24T00:22:28;24.70;;;20.50;;
76795;SDS011;65745;50.278;18.192;2023-04-24T00:25:01;28.00;;;19.60;;
76795;SDS011;65745;50.278;18.192;2023-04-24T00:27:33;22.40;;;18.90;;
76795;SDS011;65745;50.278;18.192;2023-04-24T00:30:07;23.90;;;18.60;;
76795;SDS011;65745;50.278;18.192;2023-04-24T00:32:40;23.90;;;19.10;;
76795;SDS011;65745;50.278;18.192;2023-04-24T00:35:12;21.80;;;18.00;;
76795;SDS011;65745;50.278;18.192;2023-04-24T00:37:45;22.50;;;17.80;;
76795;SDS011;65745;50.278;18.192;2023-04-24T00:40:17;23.00;;;17.80;;
76795;SDS011;65745;50.278;18.192;2023-04-24T00:42:49;22.60;;;17.80;;
76795;SDS011;65745;50.278;18.192;2023-04-24T00:45:21;25.20;;;21.40;;
76795;SDS011;65745;50.278;18.192;2023-04-24T00:47:55;25.10;;;21.10;;
76795;SDS011;65745;50.278;18.192;2023-04-24T00:50:27;25.10;;;20.30;;
76795;SDS011;65745;50.278;18.192;2023-04-24T00:53:00;20.00;;;17.40;;
76795;SDS011;65745;50.278;18.192;2023-04-24T00:55:32;21.90;;;17.70;;
76795;SDS011;65745;50.278;18.192;2023-04-24T00:58:06;17.70;;;15.00;;
76795;SDS011;65745;50.278;18.192;2023-04-24T01:00:38;18.80;;;15.80;;
76795;SDS011;65745;50.278;18.192;2023-04-24T01:03:10;19.80;;;16.50;;
76795;SDS011;65745;50.278;18.192;2023-04-24T01:05:43;19.00;;;16.90;;
76795;SDS011;65745;50.278;18.192;2023-04-24T01:08:16;19.80;;;16.00;;
76795;SDS011;65745;50.278;18.192;2023-04-24T01:10:49;20.90;;;15.80;;
76795;SDS011;65745;50.278;18.192;2023-04-24T01:13:22;18.40;;;14.80;;
76795;SDS011;65745;50.278;18.192;2023-04-24T01:15:54;16.40;;;14.40;;
76795;SDS011;65745;50.278;18.192;2023-04-24T01:18:26;18.20;;;15.00;;
76795;SDS011;65745;50.278;18.192;2023-04-24T01:20:58;16.60;;;14.10;;
76795;SDS011;65745;50.278;18.192;2023-04-24T01:23:33;18.30;;;15.40;;
76795;SDS011;65745;50.278;18.192;2023-04-24T01:26:05;18.70;;;16.70;;
76795;SDS011;65745;50.278;18.192;2023-04-24T01:28:38;17.70;;;15.30;;
76795;SDS011;65745;50.278;18.192;2023-04-24T01:31:10;19.50;;;16.00;;
76795;SDS011;65745;50.278;18.192;2023-04-24T01:33:42;17.10;;;15.30;;
76795;SDS011;65745;50.278;18.192;2023-04-24T01:36:14;17.80;;;14.80;;
76795;SDS011;65745;50.278;18.192;2023-04-24T01:38:48;17.10;;;14.50;;
76795;SDS011;65745;50.278;18.192;2023-04-24T01:41:20;17.40;;;14.20;;
76795;SDS011;65745;50.278;18.192;2023-04-24T01:43:53;24.60;;;18.60;;
76795;SDS011;65745;50.278;18.192;2023-04-24T01:46:27;31.50;;;26.70;;
76795;SDS011;65745;50.278;18.192;2023-04-24T01:49:01;33.40;;;26.00;;
76795;SDS011;65745;50.278;18.192;2023-04-24T01:51:33;24.60;;;20.50;;
76795;SDS011;65745;50.278;18.192;2023-04-24T01:54:05;20.70;;;18.50;;
76795;SDS011;65745;50.278;18.192;2023-04-24T01:56:37;20.90;;;17.10;;
76795;SDS011;65745;50.278;18.192;2023-04-24T01:59:12;20.40;;;16.30;;
76795;SDS011;65745;50.278;18.192;2023-04-24T02:01:45;20.20;;;16.40;;
76795;SDS011;65745;50.278;18.192;2023-04-24T02:04:20;19.90;;;17.70;;
76795;SDS011;65745;50.278;18.192;2023-04-24T02:06:52;19.50;;;17.50;;
76795;SDS011;65745;50.278;18.192;2023-04-24T02:09:26;19.20;;;15.70;;
76795;SDS011;65745;50.278;18.192;2023-04-24T02:11:58;21.20;;;18.00;;
76795;SDS011;65745;50.278;18.192;2023-04-24T02:14:30;22.70;;;17.20;;
76795;SDS011;65745;50.278;18.192;2023-04-24T02:17:03;21.50;;;18.20;;
76795;SDS011;65745;50.278;18.192;2023-04-24T02:19:38;20.50;;;16.30;;
76795;SDS011;65745;50.278;18.192;2023-04-24T02:22:12;21.40;;;17.80;;
76795;SDS011;65745;50.278;18.192;2023-04-24T02:24:44;20.80;;;17.10;;
76795;SDS011;65745;50.278;18.192;2023-04-24T02:27:17;20.50;;;17.20;;
76795;SDS011;65745;50.278;18.192;2023-04-24T02:29:49;19.50;;;16.90;;
76795;SDS011;65745;50.278;18.192;2023-04-24T02:32:21;20.30;;;17.90;;
76795;SDS011;65745;50.278;18.192;2023-04-24T02:34:53;19.90;;;16.70;;
76795;SDS011;65745;50.278;18.192;2023-04-24T02:37:25;19.70;;;17.20;;
76795;SDS011;65745;50.278;18.192;2023-04-24T02:39:57;26.20;;;17.50;;
76795;SDS011;65745;50.278;18.192;2023-04-24T02:42:29;21.00;;;17.40;;
76795;SDS011;65745;50.278;18.192;2023-04-24T02:45:02;21.00;;;16.70;;
76795;SDS011;65745;50.278;18.192;2023-04-24T02:47:35;19.30;;;16.80;;
76795;SDS011;65745;50.278;18.192;2023-04-24T02:50:08;19.70;;;16.70;;
76795;SDS011;65745;50.278;18.192;2023-04-24T02:52:40;19.20;;;16.00;;
76795;SDS011;65745;50.278;18.192;2023-04-24T02:55:13;20.70;;;16.60;;
76795;SDS011;65745;50.278;18.192;2023-04-24T02:57:45;17.60;;;15.20;;
76795;SDS011;65745;50.278;18.192;2023-04-24T03:00:17;18.70;;;14.90;;
76795;SDS011;65745;50.278;18.192;2023-04-24T03:02:50;17.20;;;14.50;;
76795;SDS011;65745;50.278;18.192;2023-04-24T03:05:22;18.90;;;13.80;;
76795;SDS011;65745;50.278;18.192;2023-04-24T03:07:54;19.00;;;14.70;;
76795;SDS011;65745;50.278;18.192;2023-04-24T03:10:26;16.20;;;13.20;;
76795;SDS011;65745;50.278;18.192;2023-04-24T03:12:58;16.70;;;13.80;;
76795;SDS011;65745;50.278;18.192;2023-04-24T03:15:30;17.00;;;13.00;;
76795;SDS011;65745;50.278;18.192;2023-04-24T03:18:03;15.50;;;12.50;;
76795;SDS011;65745;50.278;18.192;2023-04-24T03:20:35;17.20;;;13.70;;
76795;SDS011;65745;50.278;18.192;2023-04-24T03:23:07;18.30;;;12.80;;
76795;SDS011;65745;50.278;18.192;2023-04-24T03:25:39;15.00;;;13.10;;
76795;SDS011;65745;50.278;18.192;2023-04-24T03:28:12;18.10;;;13.30;;
76795;SDS011;65745;50.278;18.192;2023-04-24T03:30:49;16.10;;;13.40;;
76795;SDS011;65745;50.278;18.192;2023-04-24T03:33:21;14.90;;;13.10;;
76795;SDS011;65745;50.278;18.192;2023-04-24T03:36:01;14.00;;;12.60;;
76795;SDS011;65745;50.278;18.192;2023-04-24T03:38:41;15.80;;;14.10;;
76795;SDS011;65745;50.278;18.192;2023-04-24T03:41:21;15.50;;;13.30;;
76795;SDS011;65745;50.278;18.192;2023-04-24T03:43:57;17.10;;;12.70;;
76795;SDS011;65745;50.278;18.192;2023-04-24T03:46:30;15.50;;;13.50;;
76795;SDS011;65745;50.278;18.192;2023-04-24T03:49:03;15.10;;;13.60;;
76795;SDS011;65745;50.278;18.192;2023-04-24T03:51:37;19.10;;;16.30;;
76795;SDS011;65745;50.278;18.192;2023-04-24T03:54:18;17.80;;;14.80;;
76795;SDS011;65745;50.278;18.192;2023-04-24T03:56:51;18.50;;;15.80;;
76795;SDS011;65745;50.278;18.192;2023-04-24T03:59:24;18.50;;;15.60;;
76795;SDS011;65745;50.278;18.192;2023-04-24T04:02:22;20.00;;;16.40;;
76795;SDS011;65745;50.278;18.192;2023-04-24T04:04:54;24.80;;;17.40;;
76795;SDS011;65745;50.278;18.192;2023-04-24T04:07:28;19.90;;;16.90;;
76795;SDS011;65745;50.278;18.192;2023-04-24T04:10:00;22.10;;;17.00;;
76795;SDS011;65745;50.278;18.192;2023-04-24T04:12:32;16.70;;;14.90;;
76795;SDS011;65745;50.278;18.192;2023-04-24T04:15:05;19.30;;;15.40;;
76795;SDS011;65745;50.278;18.192;2023-04-24T04:17:38;19.20;;;15.10;;
76795;SDS011;65745;50.278;18.192;2023-04-24T04:20:11;20.30;;;15.30;;
76795;SDS011;65745;50.278;18.192;2023-04-24T04:22:43;19.90;;;16.40;;
76795;SDS011;65745;50.278;18.192;2023-04-24T04:25:18;17.30;;;15.10;;
76795;SDS011;65745;50.278;18.192;2023-04-24T04:27:52;17.80;;;15.20;;
76795;SDS011;65745;50.278;18.192;2023-04-24T04:30:25;21.40;;;16.90;;
76795;SDS011;65745;50.278;18.192;2023-04-24T04:33:01;19.00;;;15.90;;
76795;SDS011;65745;50.278;18.192;2023-04-24T04:35:34;20.10;;;17.10;;
76795;SDS011;65745;50.278;18.192;2023-04-24T04:38:07;21.00;;;17.80;;
76795;SDS011;65745;50.278;18.192;2023-04-24T04:40:55;21.50;;;17.30;;
76795;SDS011;65745;50.278;18.192;2023-04-24T04:43:29;20.40;;;16.90;;
76795;SDS011;65745;50.278;18.192;2023-04-24T04:46:01;20.90;;;16.00;;
76795;SDS011;65745;50.278;18.192;2023-04-24T04:48:54;20.00;;;14.90;;
76795;SDS011;65745;50.278;18.192;2023-04-24T04:51:26;18.30;;;15.10;;
76795;SDS011;65745;50.278;18.192;2023-04-24T04:53:59;19.30;;;13.90;;
76795;SDS011;65745;50.278;18.192;2023-04-24T04:56:31;19.40;;;15.70;;
76795;SDS011;65745;50.278;18.192;2023-04-24T04:59:04;19.90;;;15.50;;
76795;SDS011;65745;50.278;18.192;2023-04-24T05:01:37;27.50;;;20.60;;
76795;SDS011;65745;50.278;18.192;2023-04-24T05:04:10;22.90;;;17.50;;
76795;SDS011;65745;50.278;18.192;2023-04-24T05:06:43;19.40;;;15.90;;
76795;SDS011;65745;50.278;18.192;2023-04-24T05:09:16;15.40;;;13.50;;
76795;SDS011;65745;50.278;18.192;2023-04-24T05:11:53;18.20;;;14.30;;
76795;SDS011;65745;50.278;18.192;2023-04-24T05:14:25;20.30;;;17.70;;
76795;SDS011;65745;50.278;18.192;2023-04-24T05:16:57;26.90;;;22.80;;
76795;SDS011;65745;50.278;18.192;2023-04-24T05:19:31;24.80;;;20.10;;
76795;SDS011;65745;50.278;18.192;2023-04-24T05:22:05;20.20;;;15.40;;
76795;SDS011;65745;50.278;18.192;2023-04-24T05:24:43;20.20;;;15.70;;
76795;SDS011;65745;50.278;18.192;2023-04-24T05:27:26;21.30;;;15.20;;
76795;SDS011;65745;50.278;18.192;2023-04-24T05:29:58;31.20;;;17.70;;
76795;SDS011;65745;50.278;18.192;2023-04-24T05:32:31;32.80;;;17.50;;
76795;SDS011;65745;50.278;18.192;2023-04-24T05:35:04;40.30;;;22.00;;
76795;SDS011;65745;50.278;18.192;2023-04-24T05:37:37;24.50;;;16.30;;
76795;SDS011;65745;50.278;18.192;2023-04-24T05:40:10;21.40;;;15.20;;
76795;SDS011;65745;50.278;18.192;2023-04-24T05:42:44;18.10;;;14.20;;
76795;SDS011;65745;50.278;18.192;2023-04-24T05:45:16;18.70;;;14.30;;
76795;SDS011;65745;50.278;18.192;2023-04-24T05:47:49;16.60;;;14.90;;
76795;SDS011;65745;50.278;18.192;2023-04-24T05:50:21;17.10;;;14.80;;
76795;SDS011;65745;50.278;18.192;2023-04-24T05:52:54;17.90;;;14.90;;
76795;SDS011;65745;50.278;18.192;2023-04-24T05:55:31;23.80;;;15.40;;
76795;SDS011;65745;50.278;18.192;2023-04-24T05:58:05;18.50;;;14.70;;
76795;SDS011;65745;50.278;18.192;2023-04-24T06:00:37;15.70;;;14.10;;
76795;SDS011;65745;50.278;18.192;2023-04-24T06:03:11;18.70;;;14.90;;
76795;SDS011;65745;50.278;18.192;2023-04-24T06:05:44;19.70;;;16.50;;
76795;SDS011;65745;50.278;18.192;2023-04-24T06:08:16;15.40;;;13.30;;
76795;SDS011;65745;50.278;18.192;2023-04-24T06:10:49;14.80;;;13.20;;
76795;SDS011;65745;50.278;18.192;2023-04-24T06:13:22;16.40;;;12.40;;
76795;SDS011;65745;50.278;18.192;2023-04-24T06:16:13;16.10;;;13.20;;
76795;SDS011;65745;50.278;18.192;2023-04-24T06:18:49;18.40;;;14.40;;
76795;SDS011;65745;50.278;18.192;2023-04-24T06:21:21;19.20;;;14.20;;
76795;SDS011;65745;50.278;18.192;2023-04-24T06:23:55;15.20;;;13.50;;
76795;SDS011;65745;50.278;18.192;2023-04-24T06:26:27;17.20;;;14.00;;
76795;SDS011;65745;50.278;18.192;2023-04-24T06:28:59;18.20;;;12.50;;
76795;SDS011;65745;50.278;18.192;2023-04-24T06:31:31;15.50;;;12.30;;
76795;SDS011;65745;50.278;18.192;2023-04-24T06:34:06;16.30;;;13.60;;
76795;SDS011;65745;50.278;18.192;2023-04-24T06:36:38;18.40;;;14.80;;
76795;SDS011;65745;50.278;18.192;2023-04-24T06:39:10;17.80;;;14.30;;
76795;SDS011;65745;50.278;18.192;2023-04-24T06:41:43;20.90;;;14.90;;
76795;SDS011;65745;50.278;18.192;2023-04-24T06:44:20;18.00;;;15.40;;
76795;SDS011;65745;50.278;18.192;2023-04-24T06:46:52;21.50;;;15.20;;
76795;SDS011;65745;50.278;18.192;2023-04-24T06:49:25;24.80;;;19.10;;
76795;SDS011;65745;50.278;18.192;2023-04-24T06:51:57;25.90;;;23.30;;
76795;SDS011;65745;50.278;18.192;2023-04-24T06:54:29;17.40;;;15.70;;
76795;SDS011;65745;50.278;18.192;2023-04-24T06:57:01;14.50;;;13.00;;
76795;SDS011;65745;50.278;18.192;2023-04-24T06:59:33;14.20;;;11.80;;
76795;SDS011;65745;50.278;18.192;2023-04-24T07:02:06;12.90;;;10.30;;
76795;SDS011;65745;50.278;18.192;2023-04-24T07:04:38;12.50;;;10.50;;
76795;SDS011;65745;50.278;18.192;2023-04-24T07:07:11;18.90;;;11.10;;
76795;SDS011;65745;50.278;18.192;2023-04-24T07:09:44;17.60;;;10.40;;
76795;SDS011;65745;50.278;18.192;2023-04-24T07:12:17;15.10;;;10.80;;
76795;SDS011;65745;50.278;18.192;2023-04-24T07:14:51;13.80;;;11.10;;
76795;SDS011;65745;50.278;18.192;2023-04-24T07:17:23;12.40;;;11.00;;
76795;SDS011;65745;50.278;18.192;2023-04-24T07:19:55;14.60;;;11.20;;
76795;SDS011;65745;50.278;18.192;2023-04-24T07:22:28;14.70;;;11.50;;
76795;SDS011;65745;50.278;18.192;2023-04-24T07:25:00;14.20;;;10.70;;
76795;SDS011;65745;50.278;18.192;2023-04-24T07:27:33;15.00;;;10.50;;
76795;SDS011;65745;50.278;18.192;2023-04-24T07:30:07;12.00;;;9.20;;
76795;SDS011;65745;50.278;18.192;2023-04-24T07:32:40;13.70;;;10.70;;
76795;SDS011;65745;50.278;18.192;2023-04-24T07:35:12;16.10;;;10.30;;
76795;SDS011;65745;50.278;18.192;2023-04-24T07:37:44;16.60;;;12.30;;
76795;SDS011;65745;50.278;18.192;2023-04-24T07:40:16;15.40;;;13.00;;
76795;SDS011;65745;50.278;18.192;2023-04-24T07:42:49;18.10;;;13.00;;
76795;SDS011;65745;50.278;18.192;2023-04-24T07:45:21;16.20;;;12.90;;
76795;SDS011;65745;50.278;18.192;2023-04-24T07:47:55;20.10;;;15.30;;
76795;SDS011;65745;50.278;18.192;2023-04-24T07:50:28;18.60;;;15.20;;
76795;SDS011;65745;50.278;18.192;2023-04-24T07:53:00;17.50;;;13.30;;
76795;SDS011;65745;50.278;18.192;2023-04-24T07:55:32;18.80;;;13.40;;
76795;SDS011;65745;50.278;18.192;2023-04-24T07:58:04;19.30;;;13.80;;
76795;SDS011;65745;50.278;18.192;2023-04-24T08:00:36;18.50;;;15.00;;
76795;SDS011;65745;50.278;18.192;2023-04-24T08:03:08;15.60;;;12.20;;
76795;SDS011;65745;50.278;18.192;2023-04-24T08:05:42;15.80;;;12.10;;
76795;SDS011;65745;50.278;18.192;2023-04-24T08:08:14;13.00;;;11.10;;
76795;SDS011;65745;50.278;18.192;2023-04-24T08:10:46;16.00;;;12.30;;
76795;SDS011;65745;50.278;18.192;2023-04-24T08:13:19;11.80;;;9.70;;
76795;SDS011;65745;50.278;18.192;2023-04-24T08:15:52;14.80;;;12.10;;
76795;SDS011;65745;50.278;18.192;2023-04-24T08:18:24;14.40;;;12.00;;
76795;SDS011;65745;50.278;18.192;2023-04-24T08:20:56;14.80;;;11.60;;
76795;SDS011;65745;50.278;18.192;2023-04-24T08:23:30;10.80;;;7.70;;
76795;SDS011;65745;50.278;18.192;2023-04-24T08:26:02;10.20;;;8.30;;
76795;SDS011;65745;50.278;18.192;2023-04-24T08:28:36;12.00;;;9.40;;
76795;SDS011;65745;50.278;18.192;2023-04-24T08:31:08;11.20;;;8.30;;
76795;SDS011;65745;50.278;18.192;2023-04-24T08:33:40;11.00;;;8.40;;
76795;SDS011;65745;50.278;18.192;2023-04-24T08:36:14;8.80;;;7.90;;
76795;SDS011;65745;50.278;18.192;2023-04-24T08:38:47;8.70;;;7.80;;
76795;SDS011;65745;50.278;18.192;2023-04-24T08:41:19;10.50;;;8.50;;
76795;SDS011;65745;50.278;18.192;2023-04-24T08:43:51;9.70;;;8.00;;
76795;SDS011;65745;50.278;18.192;2023-04-24T08:46:27;9.80;;;8.00;;
76795;SDS011;65745;50.278;18.192;2023-04-24T08:49:00;8.00;;;7.20;;
76795;SDS011;65745;50.278;18.192;2023-04-24T08:51:32;10.30;;;8.40;;
76795;SDS011;65745;50.278;18.192;2023-04-24T08:54:06;8.90;;;8.00;;
76795;SDS011;65745;50.278;18.192;2023-04-24T08:56:39;15.90;;;8.50;;
76795;SDS011;65745;50.278;18.192;2023-04-24T08:59:14;9.40;;;8.10;;
76795;SDS011;65745;50.278;18.192;2023-04-24T09:01:46;7.90;;;7.10;;
76795;SDS011;65745;50.278;18.192;2023-04-24T09:04:21;9.60;;;7.80;;
76795;SDS011;65745;50.278;18.192;2023-04-24T09:06:56;9.50;;;8.40;;
76795;SDS011;65745;50.278;18.192;2023-04-24T09:09:28;8.60;;;6.60;;
76795;SDS011;65745;50.278;18.192;2023-04-24T09:12:03;9.60;;;8.20;;
76795;SDS011;65745;50.278;18.192;2023-04-24T09:14:35;9.00;;;8.10;;
76795;SDS011;65745;50.278;18.192;2023-04-24T09:17:12;10.50;;;8.50;;
76795;SDS011;65745;50.278;18.192;2023-04-24T09:19:44;8.40;;;7.20;;
76795;SDS011;65745;50.278;18.192;2023-04-24T09:22:16;10.10;;;7.90;;
76795;SDS011;65745;50.278;18.192;2023-04-24T09:24:48;8.10;;;7.30;;
76795;SDS011;65745;50.278;18.192;2023-04-24T09:27:32;8.00;;;6.80;;
76795;SDS011;65745;50.278;18.192;2023-04-24T09:30:05;8.60;;;7.80;;
76795;SDS011;65745;50.278;18.192;2023-04-24T09:32:38;8.80;;;8.00;;
76795;SDS011;65745;50.278;18.192;2023-04-24T09:35:12;8.20;;;7.10;;
76795;SDS011;65745;50.278;18.192;2023-04-24T09:37:46;8.90;;;8.10;;
76795;SDS011;65745;50.278;18.192;2023-04-24T09:40:20;8.90;;;8.00;;
76795;SDS011;65745;50.278;18.192;2023-04-24T09:42:53;8.20;;;7.20;;
76795;SDS011;65745;50.278;18.192;2023-04-24T09:45:28;9.20;;;7.90;;
76795;SDS011;65745;50.278;18.192;2023-04-24T09:48:05;7.80;;;6.90;;
76795;SDS011;65745;50.278;18.192;2023-04-24T09:50:42;8.00;;;7.10;;
76795;SDS011;65745;50.278;18.192;2023-04-24T09:53:18;8.80;;;7.40;;
76795;SDS011;65745;50.278;18.192;2023-04-24T09:55:56;9.40;;;7.20;;
76795;SDS011;65745;50.278;18.192;2023-04-24T09:58:32;12.00;;;8.00;;
76795;SDS011;65745;50.278;18.192;2023-04-24T10:01:05;8.50;;;7.60;;
76795;SDS011;65745;50.278;18.192;2023-04-24T10:03:37;9.90;;;7.40;;
76795;SDS011;65745;50.278;18.192;2023-04-24T10:08:44;8.30;;;7.40;;
76795;SDS011;65745;50.278;18.192;2023-04-24T10:11:19;8.90;;;8.00;;
76795;SDS011;65745;50.278;18.192;2023-04-24T10:13:52;9.40;;;8.40;;
76795;SDS011;65745;50.278;18.192;2023-04-24T10:16:26;9.00;;;8.00;;
76795;SDS011;65745;50.278;18.192;2023-04-24T10:19:00;8.40;;;7.60;;
76795;SDS011;65745;50.278;18.192;2023-04-24T10:21:33;8.40;;;7.60;;
76795;SDS011;65745;50.278;18.192;2023-04-24T10:24:07;8.90;;;7.50;;
76795;SDS011;65745;50.278;18.192;2023-04-24T10:26:41;10.90;;;8.20;;
76795;SDS011;65745;50.278;18.192;2023-04-24T10:29:17;10.40;;;9.00;;
76795;SDS011;65745;50.278;18.192;2023-04-24T10:31:51;8.30;;;7.30;;
76795;SDS011;65745;50.278;18.192;2023-04-24T10:34:24;9.60;;;6.40;;
76795;SDS011;65745;50.278;18.192;2023-04-24T10:36:57;7.20;;;6.40;;
76795;SDS011;65745;50.278;18.192;2023-04-24T10:39:29;7.30;;;6.50;;
76795;SDS011;65745;50.278;18.192;2023-04-24T10:42:02;8.50;;;6.60;;
76795;SDS011;65745;50.278;18.192;2023-04-24T10:44:48;8.00;;;6.90;;
76795;SDS011;65745;50.278;18.192;2023-04-24T10:47:20;6.80;;;6.10;;
76795;SDS011;65745;50.278;18.192;2023-04-24T10:49:52;8.00;;;7.20;;
76795;SDS011;65745;50.278;18.192;2023-04-24T10:58:11;9.40;;;6.00;;
76795;SDS011;65745;50.278;18.192;2023-04-24T11:00:54;6.90;;;5.80;;
76795;SDS011;65745;50.278;18.192;2023-04-24T11:03:28;6.20;;;5.60;;
76795;SDS011;65745;50.278;18.192;2023-04-24T11:06:03;6.00;;;5.40;;
76795;SDS011;65745;50.278;18.192;2023-04-24T11:08:42;7.20;;;6.60;;
76795;SDS011;65745;50.278;18.192;2023-04-24T11:11:15;7.00;;;6.40;;
76795;SDS011;65745;50.278;18.192;2023-04-24T11:14:03;6.70;;;6.00;;
76795;SDS011;65745;50.278;18.192;2023-04-24T11:16:42;6.70;;;6.10;;
76795;SDS011;65745;50.278;18.192;2023-04-24T11:19:25;7.60;;;6.90;;
76795;SDS011;65745;50.278;18.192;2023-04-24T11:21:59;6.80;;;5.90;;
76795;SDS011;65745;50.278;18.192;2023-04-24T11:24:37;7.70;;;6.90;;
76795;SDS011;65745;50.278;18.192;2023-04-24T11:27:15;6.50;;;5.90;;
76795;SDS011;65745;50.278;18.192;2023-04-24T11:29:59;7.80;;;7.10;;
76795;SDS011;65745;50.278;18.192;2023-04-24T11:32:35;6.60;;;6.00;;
76795;SDS011;65745;50.278;18.192;2023-04-24T11:35:13;7.90;;;7.00;;
76795;SDS011;65745;50.278;18.192;2023-04-24T11:37:47;7.70;;;7.00;;
76795;SDS011;65745;50.278;18.192;2023-04-24T11:40:23;6.80;;;6.10;;
76795;SDS011;65745;50.278;18.192;2023-04-24T11:42:56;8.80;;;7.90;;
76795;SDS011;65745;50.278;18.192;2023-04-24T11:45:30;8.90;;;7.80;;
76795;SDS011;65745;50.278;18.192;2023-04-24T11:48:03;8.50;;;7.50;;
76795;SDS011;65745;50.278;18.192;2023-04-24T11:50:36;7.30;;;6.60;;
76795;SDS011;65745;50.278;18.192;2023-04-24T11:53:08;7.90;;;7.10;;
76795;SDS011;65745;50.278;18.192;2023-04-24T11:55:40;9.50;;;7.70;;
76795;SDS011;65745;50.278;18.192;2023-04-24T11:58:12;8.40;;;7.70;;
76795;SDS011;65745;50.278;18.192;2023-04-24T12:00:44;10.50;;;8.90;;
76795;SDS011;65745;50.278;18.192;2023-04-24T12:03:25;8.80;;;8.00;;
76795;SDS011;65745;50.278;18.192;2023-04-24T12:06:05;9.20;;;8.10;;
76795;SDS011;65745;50.278;18.192;2023-04-24T12:08:39;9.60;;;8.10;;
76795;SDS011;65745;50.278;18.192;2023-04-24T12:11:14;9.30;;;8.20;;
76795;SDS011;65745;50.278;18.192;2023-04-24T12:13:48;8.70;;;7.50;;
76795;SDS011;65745;50.278;18.192;2023-04-24T12:16:20;8.90;;;8.10;;
76795;SDS011;65745;50.278;18.192;2023-04-24T12:18:53;8.40;;;7.60;;
76795;SDS011;65745;50.278;18.192;2023-04-24T12:21:29;8.20;;;7.10;;
76795;SDS011;65745;50.278;18.192;2023-04-24T12:24:01;8.10;;;7.30;;
76795;SDS011;65745;50.278;18.192;2023-04-24T12:26:38;11.10;;;8.60;;
76795;SDS011;65745;50.278;18.192;2023-04-24T12:29:20;9.60;;;8.70;;
76795;SDS011;65745;50.278;18.192;2023-04-24T12:31:53;10.10;;;8.60;;
76795;SDS011;65745;50.278;18.192;2023-04-24T12:34:25;8.80;;;8.00;;
76795;SDS011;65745;50.278;18.192;2023-04-24T12:36:58;9.80;;;8.80;;
76795;SDS011;65745;50.278;18.192;2023-04-24T12:39:46;10.80;;;8.70;;
76795;SDS011;65745;50.278;18.192;2023-04-24T12:42:30;8.90;;;8.10;;
76795;SDS011;65745;50.278;18.192;2023-04-24T12:45:04;7.50;;;6.80;;
76795;SDS011;65745;50.278;18.192;2023-04-24T12:47:37;9.40;;;7.90;;
76795;SDS011;65745;50.278;18.192;2023-04-24T12:50:10;9.30;;;8.30;;
76795;SDS011;65745;50.278;18.192;2023-04-24T12:52:44;9.20;;;8.30;;
76795;SDS011;65745;50.278;18.192;2023-04-24T12:55:17;10.60;;;9.30;;
76795;SDS011;65745;50.278;18.192;2023-04-24T12:57:50;9.10;;;8.30;;
76795;SDS011;65745;50.278;18.192;2023-04-24T13:00:24;9.30;;;8.30;;
76795;SDS011;65745;50.278;18.192;2023-04-24T13:02:57;9.40;;;8.40;;
76795;SDS011;65745;50.278;18.192;2023-04-24T13:05:30;10.20;;;9.30;;
76795;SDS011;65745;50.278;18.192;2023-04-24T13:08:02;10.30;;;9.40;;
76795;SDS011;65745;50.278;18.192;2023-04-24T13:10:35;10.30;;;9.20;;
76795;SDS011;65745;50.278;18.192;2023-04-24T13:13:07;11.00;;;9.90;;
76795;SDS011;65745;50.278;18.192;2023-04-24T13:15:40;10.80;;;9.80;;
76795;SDS011;65745;50.278;18.192;2023-04-24T13:18:13;11.00;;;9.30;;
76795;SDS011;65745;50.278;18.192;2023-04-24T13:20:45;10.20;;;9.30;;
76795;SDS011;65745;50.278;18.192;2023-04-24T13:23:18;10.40;;;9.40;;
76795;SDS011;65745;50.278;18.192;2023-04-24T13:25:51;9.80;;;8.70;;
76795;SDS011;65745;50.278;18.192;2023-04-24T13:28:26;8.80;;;8.00;;
76795;SDS011;65745;50.278;18.192;2023-04-24T13:30:58;10.40;;;8.50;;
76795;SDS011;65745;50.278;18.192;2023-04-24T13:33:30;9.90;;;8.90;;
76795;SDS011;65745;50.278;18.192;2023-04-24T13:36:03;9.70;;;8.80;;
76795;SDS011;65745;50.278;18.192;2023-04-24T13:38:35;11.10;;;10.00;;
76795;SDS011;65745;50.278;18.192;2023-04-24T13:41:07;10.20;;;9.10;;
76795;SDS011;65745;50.278;18.192;2023-04-24T13:43:40;10.50;;;9.30;;
76795;SDS011;65745;50.278;18.192;2023-04-24T13:46:13;11.10;;;10.00;;
76795;SDS011;65745;50.278;18.192;2023-04-24T13:48:45;10.50;;;9.40;;
76795;SDS011;65745;50.278;18.192;2023-04-24T13:51:17;10.50;;;9.40;;
76795;SDS011;65745;50.278;18.192;2023-04-24T13:53:50;9.90;;;8.90;;
76795;SDS011;65745;50.278;18.192;2023-04-24T13:56:22;10.30;;;9.00;;
76795;SDS011;65745;50.278;18.192;2023-04-24T13:58:54;10.40;;;9.40;;
76795;SDS011;65745;50.278;18.192;2023-04-24T14:01:26;9.20;;;8.30;;
76795;SDS011;65745;50.278;18.192;2023-04-24T14:03:58;11.20;;;10.00;;
76795;SDS011;65745;50.278;18.192;2023-04-24T14:06:31;11.60;;;10.50;;
76795;SDS011;65745;50.278;18.192;2023-04-24T14:09:03;13.90;;;12.60;;
76795;SDS011;65745;50.278;18.192;2023-04-24T14:11:36;12.00;;;10.70;;
76795;SDS011;65745;50.278;18.192;2023-04-24T14:14:08;10.90;;;9.80;;
76795;SDS011;65745;50.278;18.192;2023-04-24T14:16:40;12.10;;;10.90;;
76795;SDS011;65745;50.278;18.192;2023-04-24T14:19:12;13.20;;;11.70;;
76795;SDS011;65745;50.278;18.192;2023-04-24T14:21:44;10.50;;;9.50;;
76795;SDS011;65745;50.278;18.192;2023-04-24T14:24:17;11.60;;;10.50;;
76795;SDS011;65745;50.278;18.192;2023-04-24T14:26:49;15.00;;;13.50;;
76795;SDS011;65745;50.278;18.192;2023-04-24T14:29:21;17.30;;;14.10;;
76795;SDS011;65745;50.278;18.192;2023-04-24T14:31:55;14.80;;;13.40;;
76795;SDS011;65745;50.278;18.192;2023-04-24T14:34:27;18.40;;;16.00;;
76795;SDS011;65745;50.278;18.192;2023-04-24T14:36:59;16.00;;;14.10;;
76795;SDS011;65745;50.278;18.192;2023-04-24T14:39:32;15.20;;;13.70;;
76795;SDS011;65745;50.278;18.192;2023-04-24T14:42:04;13.50;;;12.20;;
76795;SDS011;65745;50.278;18.192;2023-04-24T14:44:36;13.70;;;12.20;;
76795;SDS011;65745;50.278;18.192;2023-04-24T14:47:08;15.90;;;14.20;;
76795;SDS011;65745;50.278;18.192;2023-04-24T14:49:40;18.00;;;15.70;;
76795;SDS011;65745;50.278;18.192;2023-04-24T14:52:16;22.70;;;20.30;;
76795;SDS011;65745;50.278;18.192;2023-04-24T14:54:48;17.20;;;14.90;;
76795;SDS011;65745;50.278;18.192;2023-04-24T14:57:20;15.10;;;12.80;;
76795;SDS011;65745;50.278;18.192;2023-04-24T14:59:52;18.50;;;15.90;;
76795;SDS011;65745;50.278;18.192;2023-04-24T15:02:24;23.70;;;18.90;;